sensor_id;sensor_type;location;lat;lon;timestamp;temperature;humidity
20759;DHT22;10539;53.686;9.158;2022-12-29T00:01:55;10.00;99.90
20759;DHT22;10539;53.686;9.158;2022-12-29T00:04:22;10.00;99.90
20759;DHT22;10539;53.686;9.158;2022-12-29T00:06:48;10.00;99.90
20759;DHT22;10539;53.686;9.158;2022-12-29T00:09:15;10.00;99.90
20759;DHT22;10539;53.686;9.158;2022-12-29T00:11:42;10.10;99.90
20759;DHT22;10539;53.686;9.158;2022-12-29T00:14:11;10.10;99.90
20759;DHT22;10539;53.686;9.158;2022-12-29T00:16:57;10.10;99.90
20759;DHT22;10539;53.686;9.158;2022-12-29T00:19:23;10.10;99.90
20759;DHT22;10539;53.686;9.158;2022-12-29T00:22:12;10.10;99.90
20759;DHT22;10539;53.686;9.158;2022-12-29T00:24:56;10.10;99.90
20759;DHT22;10539;53.686;9.158;2022-12-29T00:27:34;10.10;99.90
20759;DHT22;10539;53.686;9.158;2022-12-29T00:30:22;10.10;99.90
20759;DHT22;10539;53.686;9.158;2022-12-29T00:33:18;10.10;99.90
20759;DHT22;10539;53.686;9.158;2022-12-29T00:38:34;10.20;99.90
20759;DHT22;10539;53.686;9.158;2022-12-29T00:41:19;10.20;99.90
20759;DHT22;10539;53.686;9.158;2022-12-29T00:44:04;10.10;99.90
20759;DHT22;10539;53.686;9.158;2022-12-29T00:46:31;10.10;99.90
20759;DHT22;10539;53.686;9.158;2022-12-29T00:48:57;10.10;99.90
20759;DHT22;10539;53.686;9.158;2022-12-29T00:51:41;10.20;99.90
20759;DHT22;10539;53.686;9.158;2022-12-29T00:54:07;10.20;99.90
20759;DHT22;10539;53.686;9.158;2022-12-29T00:56:33;10.20;99.90
20759;DHT22;10539;53.686;9.158;2022-12-29T00:59:04;10.20;99.90
20759;DHT22;10539;53.686;9.158;2022-12-29T01:01:30;10.20;99.90
20759;DHT22;10539;53.686;9.158;2022-12-29T01:03:56;10.20;99.90
20759;DHT22;10539;53.686;9.158;2022-12-29T01:06:22;10.20;99.90
20759;DHT22;10539;53.686;9.158;2022-12-29T01:08:50;10.30;99.90
20759;DHT22;10539;53.686;9.158;2022-12-29T01:11:35;10.30;99.90
20759;DHT22;10539;53.686;9.158;2022-12-29T01:14:01;10.30;99.90
20759;DHT22;10539;53.686;9.158;2022-12-29T01:16:27;10.30;99.90
20759;DHT22;10539;53.686;9.158;2022-12-29T01:18:53;10.30;99.90
20759;DHT22;10539;53.686;9.158;2022-12-29T01:21:19;10.30;99.90
20759;DHT22;10539;53.686;9.158;2022-12-29T01:23:44;10.30;99.90
20759;DHT22;10539;53.686;9.158;2022-12-29T01:26:12;10.30;99.90
20759;DHT22;10539;53.686;9.158;2022-12-29T01:28:38;10.30;99.90
20759;DHT22;10539;53.686;9.158;2022-12-29T01:31:11;10.30;99.90
20759;DHT22;10539;53.686;9.158;2022-12-29T01:33:38;10.30;99.90
20759;DHT22;10539;53.686;9.158;2022-12-29T01:36:06;10.30;99.90
20759;DHT22;10539;53.686;9.158;2022-12-29T01:38:32;10.30;99.90
20759;DHT22;10539;53.686;9.158;2022-12-29T01:40:58;10.30;99.90
20759;DHT22;10539;53.686;9.158;2022-12-29T01:43:45;10.40;99.90
20759;DHT22;10539;53.686;9.158;2022-12-29T01:46:22;10.40;99.90
20759;DHT22;10539;53.686;9.158;2022-12-29T01:48:56;10.40;99.90
20759;DHT22;10539;53.686;9.158;2022-12-29T01:51:25;10.40;99.90
20759;DHT22;10539;53.686;9.158;2022-12-29T01:53:52;10.40;99.90
20759;DHT22;10539;53.686;9.158;2022-12-29T01:56:19;10.40;99.90
20759;DHT22;10539;53.686;9.158;2022-12-29T01:58:48;10.50;99.90
20759;DHT22;10539;53.686;9.158;2022-12-29T02:01:18;10.50;99.90
20759;DHT22;10539;53.686;9.158;2022-12-29T02:03:45;10.50;99.90
20759;DHT22;10539;53.686;9.158;2022-12-29T02:06:16;10.50;99.90
20759;DHT22;10539;53.686;9.158;2022-12-29T02:08:46;10.50;99.90
20759;DHT22;10539;53.686;9.158;2022-12-29T02:11:12;10.50;99.90
20759;DHT22;10539;53.686;9.158;2022-12-29T02:13:39;10.50;99.90
20759;DHT22;10539;53.686;9.158;2022-12-29T02:16:12;10.50;99.90
20759;DHT22;10539;53.686;9.158;2022-12-29T02:18:54;10.50;99.90
20759;DHT22;10539;53.686;9.158;2022-12-29T02:21:52;10.50;99.90
20759;DHT22;10539;53.686;9.158;2022-12-29T02:27:23;10.50;99.90
20759;DHT22;10539;53.686;9.158;2022-12-29T02:29:57;10.50;99.90
20759;DHT22;10539;53.686;9.158;2022-12-29T02:33:10;10.50;99.90
20759;DHT22;10539;53.686;9.158;2022-12-29T02:41:32;10.60;99.90
20759;DHT22;10539;53.686;9.158;2022-12-29T02:44:14;10.60;99.90
20759;DHT22;10539;53.686;9.158;2022-12-29T02:46:54;10.60;99.90
20759;DHT22;10539;53.686;9.158;2022-12-29T02:49:45;10.60;99.90
20759;DHT22;10539;53.686;9.158;2022-12-29T02:52:18;10.60;99.90
20759;DHT22;10539;53.686;9.158;2022-12-29T02:54:44;10.60;99.90
20759;DHT22;10539;53.686;9.158;2022-12-29T03:00:00;10.60;99.90
20759;DHT22;10539;53.686;9.158;2022-12-29T03:02:30;10.70;99.90
20759;DHT22;10539;53.686;9.158;2022-12-29T03:11:10;10.70;99.90
20759;DHT22;10539;53.686;9.158;2022-12-29T03:14:05;10.70;99.90
20759;DHT22;10539;53.686;9.158;2022-12-29T03:16:59;10.80;99.90
20759;DHT22;10539;53.686;9.158;2022-12-29T03:19:31;10.80;99.90
20759;DHT22;10539;53.686;9.158;2022-12-29T03:22:04;10.80;99.90
20759;DHT22;10539;53.686;9.158;2022-12-29T03:24:57;10.80;99.90
20759;DHT22;10539;53.686;9.158;2022-12-29T03:27:29;10.80;99.90
20759;DHT22;10539;53.686;9.158;2022-12-29T03:30:00;10.80;99.90
20759;DHT22;10539;53.686;9.158;2022-12-29T03:32:36;10.90;99.90
20759;DHT22;10539;53.686;9.158;2022-12-29T03:35:04;10.90;99.90
20759;DHT22;10539;53.686;9.158;2022-12-29T03:37:40;10.90;99.90
20759;DHT22;10539;53.686;9.158;2022-12-29T03:40:07;10.90;99.90
20759;DHT22;10539;53.686;9.158;2022-12-29T03:42:35;10.90;99.90
20759;DHT22;10539;53.686;9.158;2022-12-29T03:45:02;10.90;99.90
20759;DHT22;10539;53.686;9.158;2022-12-29T03:47:29;11.00;99.90
20759;DHT22;10539;53.686;9.158;2022-12-29T03:49:55;11.00;99.90
20759;DHT22;10539;53.686;9.158;2022-12-29T03:52:21;11.00;99.90
20759;DHT22;10539;53.686;9.158;2022-12-29T03:54:46;11.00;99.90
20759;DHT22;10539;53.686;9.158;2022-12-29T03:57:12;11.00;99.90
20759;DHT22;10539;53.686;9.158;2022-12-29T03:59:38;11.00;99.90
20759;DHT22;10539;53.686;9.158;2022-12-29T04:02:04;11.00;99.90
20759;DHT22;10539;53.686;9.158;2022-12-29T04:04:29;11.00;99.90
20759;DHT22;10539;53.686;9.158;2022-12-29T04:06:55;11.00;99.90
20759;DHT22;10539;53.686;9.158;2022-12-29T04:09:21;11.10;99.90
20759;DHT22;10539;53.686;9.158;2022-12-29T04:11:47;11.10;99.90
20759;DHT22;10539;53.686;9.158;2022-12-29T04:14:12;11.10;99.90
20759;DHT22;10539;53.686;9.158;2022-12-29T04:16:38;11.10;99.90
20759;DHT22;10539;53.686;9.158;2022-12-29T04:19:05;11.10;99.90
20759;DHT22;10539;53.686;9.158;2022-12-29T04:21:31;11.10;99.90
20759;DHT22;10539;53.686;9.158;2022-12-29T04:23:57;11.20;99.90
20759;DHT22;10539;53.686;9.158;2022-12-29T04:26:23;11.20;99.90
20759;DHT22;10539;53.686;9.158;2022-12-29T04:28:49;11.20;99.90
20759;DHT22;10539;53.686;9.158;2022-12-29T04:31:14;11.20;99.90
20759;DHT22;10539;53.686;9.158;2022-12-29T04:33:40;11.20;99.90
20759;DHT22;10539;53.686;9.158;2022-12-29T04:36:06;11.20;99.90
20759;DHT22;10539;53.686;9.158;2022-12-29T04:38:32;11.20;99.90
20759;DHT22;10539;53.686;9.158;2022-12-29T04:41:01;11.20;99.90
20759;DHT22;10539;53.686;9.158;2022-12-29T04:43:27;11.10;99.90
20759;DHT22;10539;53.686;9.158;2022-12-29T04:45:53;11.10;99.90
20759;DHT22;10539;53.686;9.158;2022-12-29T04:48:19;11.00;99.90
20759;DHT22;10539;53.686;9.158;2022-12-29T04:50:47;11.00;99.90
20759;DHT22;10539;53.686;9.158;2022-12-29T04:53:14;11.00;99.90
20759;DHT22;10539;53.686;9.158;2022-12-29T04:55:39;10.90;99.90
20759;DHT22;10539;53.686;9.158;2022-12-29T04:58:05;10.90;99.90
20759;DHT22;10539;53.686;9.158;2022-12-29T05:00:31;11.00;99.90
20759;DHT22;10539;53.686;9.158;2022-12-29T05:02:57;10.90;99.90
20759;DHT22;10539;53.686;9.158;2022-12-29T05:05:22;11.00;99.90
20759;DHT22;10539;53.686;9.158;2022-12-29T05:07:48;10.90;99.90
20759;DHT22;10539;53.686;9.158;2022-12-29T05:10:14;10.90;99.90
20759;DHT22;10539;53.686;9.158;2022-12-29T05:12:40;10.90;99.90
20759;DHT22;10539;53.686;9.158;2022-12-29T05:15:07;10.90;99.90
20759;DHT22;10539;53.686;9.158;2022-12-29T05:17:33;10.90;99.90
20759;DHT22;10539;53.686;9.158;2022-12-29T05:19:59;10.90;99.90
20759;DHT22;10539;53.686;9.158;2022-12-29T05:22:25;10.90;99.90
20759;DHT22;10539;53.686;9.158;2022-12-29T05:24:51;10.90;99.90
20759;DHT22;10539;53.686;9.158;2022-12-29T05:27:16;10.90;99.90
20759;DHT22;10539;53.686;9.158;2022-12-29T05:29:42;10.90;99.90
20759;DHT22;10539;53.686;9.158;2022-12-29T05:32:08;10.90;99.90
20759;DHT22;10539;53.686;9.158;2022-12-29T05:34:34;10.90;99.90
20759;DHT22;10539;53.686;9.158;2022-12-29T05:36:59;10.90;99.90
20759;DHT22;10539;53.686;9.158;2022-12-29T05:39:26;11.00;99.90
20759;DHT22;10539;53.686;9.158;2022-12-29T05:41:52;10.90;99.90
20759;DHT22;10539;53.686;9.158;2022-12-29T05:44:18;10.90;99.90
20759;DHT22;10539;53.686;9.158;2022-12-29T05:46:43;11.00;99.90
20759;DHT22;10539;53.686;9.158;2022-12-29T05:49:09;11.00;99.90
20759;DHT22;10539;53.686;9.158;2022-12-29T05:51:35;11.00;99.90
20759;DHT22;10539;53.686;9.158;2022-12-29T05:54:01;11.10;99.90
20759;DHT22;10539;53.686;9.158;2022-12-29T05:56:27;11.10;99.90
20759;DHT22;10539;53.686;9.158;2022-12-29T05:58:52;11.10;99.90
20759;DHT22;10539;53.686;9.158;2022-12-29T06:01:18;11.10;99.90
20759;DHT22;10539;53.686;9.158;2022-12-29T06:03:44;11.10;99.90
20759;DHT22;10539;53.686;9.158;2022-12-29T06:06:10;11.20;99.90
20759;DHT22;10539;53.686;9.158;2022-12-29T06:08:36;11.20;99.90
20759;DHT22;10539;53.686;9.158;2022-12-29T06:11:01;11.20;99.90
20759;DHT22;10539;53.686;9.158;2022-12-29T06:13:27;11.20;99.90
20759;DHT22;10539;53.686;9.158;2022-12-29T06:15:53;11.20;99.90
20759;DHT22;10539;53.686;9.158;2022-12-29T06:18:19;11.20;99.90
20759;DHT22;10539;53.686;9.158;2022-12-29T06:20:44;11.20;99.90
20759;DHT22;10539;53.686;9.158;2022-12-29T06:23:10;11.20;99.90
20759;DHT22;10539;53.686;9.158;2022-12-29T06:25:38;11.20;99.90
20759;DHT22;10539;53.686;9.158;2022-12-29T06:28:04;11.20;99.90
20759;DHT22;10539;53.686;9.158;2022-12-29T06:30:31;11.20;99.90
20759;DHT22;10539;53.686;9.158;2022-12-29T06:32:58;11.20;99.90
20759;DHT22;10539;53.686;9.158;2022-12-29T06:35:24;11.20;99.90
20759;DHT22;10539;53.686;9.158;2022-12-29T06:37:50;11.20;99.90
20759;DHT22;10539;53.686;9.158;2022-12-29T06:40:16;11.20;99.90
20759;DHT22;10539;53.686;9.158;2022-12-29T06:42:42;11.10;99.90
20759;DHT22;10539;53.686;9.158;2022-12-29T06:45:08;11.10;99.90
20759;DHT22;10539;53.686;9.158;2022-12-29T06:47:34;11.10;99.90
20759;DHT22;10539;53.686;9.158;2022-12-29T06:50:01;11.10;99.90
20759;DHT22;10539;53.686;9.158;2022-12-29T06:52:27;11.10;99.90
20759;DHT22;10539;53.686;9.158;2022-12-29T06:54:55;11.10;99.90
20759;DHT22;10539;53.686;9.158;2022-12-29T06:57:21;11.20;99.90
20759;DHT22;10539;53.686;9.158;2022-12-29T06:59:47;11.20;99.90
20759;DHT22;10539;53.686;9.158;2022-12-29T07:02:13;11.30;99.90
20759;DHT22;10539;53.686;9.158;2022-12-29T07:04:43;11.30;99.90
20759;DHT22;10539;53.686;9.158;2022-12-29T07:07:09;11.30;99.90
20759;DHT22;10539;53.686;9.158;2022-12-29T07:09:35;11.30;99.90
20759;DHT22;10539;53.686;9.158;2022-12-29T07:12:00;11.30;99.90
20759;DHT22;10539;53.686;9.158;2022-12-29T07:14:26;11.30;99.90
20759;DHT22;10539;53.686;9.158;2022-12-29T07:16:52;11.30;99.90
20759;DHT22;10539;53.686;9.158;2022-12-29T07:19:18;11.30;99.90
20759;DHT22;10539;53.686;9.158;2022-12-29T07:21:44;11.40;99.90
20759;DHT22;10539;53.686;9.158;2022-12-29T07:24:09;11.40;99.90
20759;DHT22;10539;53.686;9.158;2022-12-29T07:26:35;11.30;99.90
20759;DHT22;10539;53.686;9.158;2022-12-29T07:29:05;11.30;99.90
20759;DHT22;10539;53.686;9.158;2022-12-29T07:31:31;11.30;99.90
20759;DHT22;10539;53.686;9.158;2022-12-29T07:33:56;11.20;99.90
20759;DHT22;10539;53.686;9.158;2022-12-29T07:36:22;11.30;99.90
20759;DHT22;10539;53.686;9.158;2022-12-29T07:38:48;11.30;99.90
20759;DHT22;10539;53.686;9.158;2022-12-29T07:41:13;11.20;99.90
20759;DHT22;10539;53.686;9.158;2022-12-29T07:43:39;11.20;99.90
20759;DHT22;10539;53.686;9.158;2022-12-29T07:46:05;11.20;99.90
20759;DHT22;10539;53.686;9.158;2022-12-29T07:48:31;11.10;99.90
20759;DHT22;10539;53.686;9.158;2022-12-29T07:50:58;11.20;99.90
20759;DHT22;10539;53.686;9.158;2022-12-29T07:53:24;11.20;99.90
20759;DHT22;10539;53.686;9.158;2022-12-29T07:55:50;11.20;99.90
20759;DHT22;10539;53.686;9.158;2022-12-29T07:58:15;11.20;99.90
20759;DHT22;10539;53.686;9.158;2022-12-29T08:00:41;11.30;99.90
20759;DHT22;10539;53.686;9.158;2022-12-29T08:03:07;11.30;99.90
20759;DHT22;10539;53.686;9.158;2022-12-29T08:05:33;11.30;99.90
20759;DHT22;10539;53.686;9.158;2022-12-29T08:07:59;11.30;99.90
20759;DHT22;10539;53.686;9.158;2022-12-29T08:10:25;11.30;99.90
20759;DHT22;10539;53.686;9.158;2022-12-29T08:12:51;11.30;99.90
20759;DHT22;10539;53.686;9.158;2022-12-29T08:15:17;11.30;99.90
20759;DHT22;10539;53.686;9.158;2022-12-29T08:17:43;11.40;99.90
20759;DHT22;10539;53.686;9.158;2022-12-29T08:20:09;11.30;99.90
20759;DHT22;10539;53.686;9.158;2022-12-29T08:22:34;11.30;99.90
20759;DHT22;10539;53.686;9.158;2022-12-29T08:25:00;11.30;99.90
20759;DHT22;10539;53.686;9.158;2022-12-29T08:27:26;11.30;99.90
20759;DHT22;10539;53.686;9.158;2022-12-29T08:29:52;11.30;99.90
20759;DHT22;10539;53.686;9.158;2022-12-29T08:32:18;11.30;99.90
20759;DHT22;10539;53.686;9.158;2022-12-29T08:34:44;11.40;99.90
20759;DHT22;10539;53.686;9.158;2022-12-29T08:37:10;11.40;99.90
20759;DHT22;10539;53.686;9.158;2022-12-29T08:39:36;11.30;99.90
20759;DHT22;10539;53.686;9.158;2022-12-29T08:42:02;11.40;99.90
20759;DHT22;10539;53.686;9.158;2022-12-29T08:44:27;11.40;99.90
20759;DHT22;10539;53.686;9.158;2022-12-29T08:46:53;11.40;99.90
20759;DHT22;10539;53.686;9.158;2022-12-29T08:49:19;11.40;99.90
20759;DHT22;10539;53.686;9.158;2022-12-29T08:51:44;11.40;99.90
20759;DHT22;10539;53.686;9.158;2022-12-29T08:54:10;11.50;99.90
20759;DHT22;10539;53.686;9.158;2022-12-29T08:56:36;11.50;99.90
20759;DHT22;10539;53.686;9.158;2022-12-29T08:59:01;11.50;99.90
20759;DHT22;10539;53.686;9.158;2022-12-29T09:01:27;11.50;99.90
20759;DHT22;10539;53.686;9.158;2022-12-29T09:03:54;11.50;99.90
20759;DHT22;10539;53.686;9.158;2022-12-29T09:06:20;11.50;99.90
20759;DHT22;10539;53.686;9.158;2022-12-29T09:08:46;11.50;99.90
20759;DHT22;10539;53.686;9.158;2022-12-29T09:11:20;11.50;99.90
20759;DHT22;10539;53.686;9.158;2022-12-29T09:13:47;11.60;99.90
20759;DHT22;10539;53.686;9.158;2022-12-29T09:16:13;11.60;99.90
20759;DHT22;10539;53.686;9.158;2022-12-29T09:18:39;11.60;99.90
20759;DHT22;10539;53.686;9.158;2022-12-29T09:21:06;11.60;99.90
20759;DHT22;10539;53.686;9.158;2022-12-29T09:23:32;11.60;99.90
20759;DHT22;10539;53.686;9.158;2022-12-29T09:25:58;11.60;99.90
20759;DHT22;10539;53.686;9.158;2022-12-29T09:28:24;11.60;99.90
20759;DHT22;10539;53.686;9.158;2022-12-29T09:30:50;11.60;99.90
20759;DHT22;10539;53.686;9.158;2022-12-29T09:33:16;11.60;99.90
20759;DHT22;10539;53.686;9.158;2022-12-29T09:35:43;11.60;99.90
20759;DHT22;10539;53.686;9.158;2022-12-29T09:38:09;11.60;99.90
20759;DHT22;10539;53.686;9.158;2022-12-29T09:40:36;11.60;99.90
20759;DHT22;10539;53.686;9.158;2022-12-29T09:48:39;11.50;99.90
20759;DHT22;10539;53.686;9.158;2022-12-29T09:51:11;11.50;99.90
20759;DHT22;10539;53.686;9.158;2022-12-29T09:53:42;11.50;99.90
20759;DHT22;10539;53.686;9.158;2022-12-29T09:56:19;11.50;99.90
20759;DHT22;10539;53.686;9.158;2022-12-29T09:59:00;11.50;99.90
20759;DHT22;10539;53.686;9.158;2022-12-29T10:01:38;11.50;99.90
20759;DHT22;10539;53.686;9.158;2022-12-29T10:04:06;11.60;99.90
20759;DHT22;10539;53.686;9.158;2022-12-29T10:12:06;11.80;99.90
20759;DHT22;10539;53.686;9.158;2022-12-29T10:14:50;11.80;99.90
20759;DHT22;10539;53.686;9.158;2022-12-29T10:17:40;11.80;99.90
20759;DHT22;10539;53.686;9.158;2022-12-29T10:20:47;11.90;99.90
20759;DHT22;10539;53.686;9.158;2022-12-29T10:25:55;11.80;99.90
20759;DHT22;10539;53.686;9.158;2022-12-29T10:28:23;11.80;99.90
20759;DHT22;10539;53.686;9.158;2022-12-29T10:30:50;11.70;99.90
20759;DHT22;10539;53.686;9.158;2022-12-29T10:33:21;11.70;99.90
20759;DHT22;10539;53.686;9.158;2022-12-29T10:35:49;11.70;99.90
20759;DHT22;10539;53.686;9.158;2022-12-29T10:43:54;11.70;99.90
20759;DHT22;10539;53.686;9.158;2022-12-29T10:46:25;11.70;99.90
20759;DHT22;10539;53.686;9.158;2022-12-29T10:48:52;11.70;99.90
20759;DHT22;10539;53.686;9.158;2022-12-29T10:51:33;11.70;99.90
20759;DHT22;10539;53.686;9.158;2022-12-29T10:54:13;11.70;99.90
20759;DHT22;10539;53.686;9.158;2022-12-29T10:56:50;11.80;99.90
20759;DHT22;10539;53.686;9.158;2022-12-29T10:59:26;11.80;99.90
20759;DHT22;10539;53.686;9.158;2022-12-29T11:04:33;11.70;99.90
20759;DHT22;10539;53.686;9.158;2022-12-29T11:07:01;11.70;99.90
20759;DHT22;10539;53.686;9.158;2022-12-29T11:09:29;11.70;99.90
20759;DHT22;10539;53.686;9.158;2022-12-29T11:11:56;11.70;99.90
20759;DHT22;10539;53.686;9.158;2022-12-29T11:14:30;11.70;99.90
20759;DHT22;10539;53.686;9.158;2022-12-29T11:19:26;11.70;99.90
20759;DHT22;10539;53.686;9.158;2022-12-29T11:21:53;11.70;99.90
20759;DHT22;10539;53.686;9.158;2022-12-29T11:26:50;11.70;99.90
20759;DHT22;10539;53.686;9.158;2022-12-29T11:31:57;11.70;99.90
20759;DHT22;10539;53.686;9.158;2022-12-29T11:34:25;11.70;99.90
20759;DHT22;10539;53.686;9.158;2022-12-29T11:37:19;11.70;99.90
20759;DHT22;10539;53.686;9.158;2022-12-29T11:39:59;11.70;99.90
20759;DHT22;10539;53.686;9.158;2022-12-29T11:42:38;11.70;99.90
20759;DHT22;10539;53.686;9.158;2022-12-29T11:45:09;11.60;99.90
20759;DHT22;10539;53.686;9.158;2022-12-29T11:47:44;11.70;99.90
20759;DHT22;10539;53.686;9.158;2022-12-29T11:50:25;11.70;99.90
20759;DHT22;10539;53.686;9.158;2022-12-29T11:53:13;11.70;99.90
20759;DHT22;10539;53.686;9.158;2022-12-29T11:55:39;11.70;99.90
20759;DHT22;10539;53.686;9.158;2022-12-29T11:58:06;11.60;99.90
20759;DHT22;10539;53.686;9.158;2022-12-29T12:00:34;11.60;99.90
20759;DHT22;10539;53.686;9.158;2022-12-29T12:03:19;11.60;99.90
20759;DHT22;10539;53.686;9.158;2022-12-29T12:05:58;11.60;99.90
20759;DHT22;10539;53.686;9.158;2022-12-29T12:08:54;11.50;99.90
20759;DHT22;10539;53.686;9.158;2022-12-29T12:11:29;11.50;99.90
20759;DHT22;10539;53.686;9.158;2022-12-29T12:14:20;11.50;99.90
20759;DHT22;10539;53.686;9.158;2022-12-29T12:16:51;11.40;99.90
20759;DHT22;10539;53.686;9.158;2022-12-29T12:20:39;11.40;99.90
20759;DHT22;10539;53.686;9.158;2022-12-29T12:22:41;11.30;99.90
20759;DHT22;10539;53.686;9.158;2022-12-29T12:25:23;11.20;99.90
20759;DHT22;10539;53.686;9.158;2022-12-29T12:27:56;11.10;99.90
20759;DHT22;10539;53.686;9.158;2022-12-29T12:30:26;11.00;99.90
20759;DHT22;10539;53.686;9.158;2022-12-29T12:32:58;10.90;99.90
20759;DHT22;10539;53.686;9.158;2022-12-29T12:35:42;10.90;99.90
20759;DHT22;10539;53.686;9.158;2022-12-29T12:38:31;10.80;99.90
20759;DHT22;10539;53.686;9.158;2022-12-29T12:41:11;10.80;99.90
20759;DHT22;10539;53.686;9.158;2022-12-29T12:54:46;10.60;99.90
20759;DHT22;10539;53.686;9.158;2022-12-29T13:00:24;10.50;99.90
20759;DHT22;10539;53.686;9.158;2022-12-29T13:11:18;10.10;99.90
20759;DHT22;10539;53.686;9.158;2022-12-29T13:14:14;10.00;99.90
20759;DHT22;10539;53.686;9.158;2022-12-29T13:19:46;9.90;99.90
20759;DHT22;10539;53.686;9.158;2022-12-29T13:30:05;10.00;99.90
20759;DHT22;10539;53.686;9.158;2022-12-29T13:32:53;9.90;99.90
20759;DHT22;10539;53.686;9.158;2022-12-29T13:35:48;10.00;99.90
20759;DHT22;10539;53.686;9.158;2022-12-29T13:38:32;10.00;99.90
20759;DHT22;10539;53.686;9.158;2022-12-29T13:41:09;10.00;99.90
20759;DHT22;10539;53.686;9.158;2022-12-29T13:43:39;10.00;99.90
20759;DHT22;10539;53.686;9.158;2022-12-29T13:46:18;10.00;99.90
20759;DHT22;10539;53.686;9.158;2022-12-29T13:51:10;10.10;99.90
20759;DHT22;10539;53.686;9.158;2022-12-29T14:02:24;10.20;99.90
20759;DHT22;10539;53.686;9.158;2022-12-29T14:04:57;10.30;99.90
20759;DHT22;10539;53.686;9.158;2022-12-29T14:07:23;10.30;99.90
20759;DHT22;10539;53.686;9.158;2022-12-29T14:09:51;10.40;99.90
20759;DHT22;10539;53.686;9.158;2022-12-29T14:12:40;10.40;99.90
20759;DHT22;10539;53.686;9.158;2022-12-29T14:17:37;10.50;99.90
20759;DHT22;10539;53.686;9.158;2022-12-29T14:20:06;10.50;99.90
20759;DHT22;10539;53.686;9.158;2022-12-29T14:22:56;10.50;99.90
20759;DHT22;10539;53.686;9.158;2022-12-29T14:25:52;10.50;99.90
20759;DHT22;10539;53.686;9.158;2022-12-29T14:28:34;10.50;99.90
20759;DHT22;10539;53.686;9.158;2022-12-29T14:36:38;10.50;99.90
20759;DHT22;10539;53.686;9.158;2022-12-29T14:39:35;10.40;99.90
20759;DHT22;10539;53.686;9.158;2022-12-29T14:45:06;10.40;99.90
20759;DHT22;10539;53.686;9.158;2022-12-29T14:47:36;10.30;99.90
20759;DHT22;10539;53.686;9.158;2022-12-29T14:50:11;10.30;99.90
20759;DHT22;10539;53.686;9.158;2022-12-29T14:52:55;10.30;99.90
20759;DHT22;10539;53.686;9.158;2022-12-29T14:55:47;10.20;99.90
20759;DHT22;10539;53.686;9.158;2022-12-29T14:58:27;10.20;99.90
20759;DHT22;10539;53.686;9.158;2022-12-29T15:00:53;10.20;99.90
20759;DHT22;10539;53.686;9.158;2022-12-29T15:03:23;10.10;99.90
20759;DHT22;10539;53.686;9.158;2022-12-29T15:05:53;10.10;99.90
20759;DHT22;10539;53.686;9.158;2022-12-29T15:08:24;10.10;99.90
20759;DHT22;10539;53.686;9.158;2022-12-29T15:11:00;10.00;99.90
20759;DHT22;10539;53.686;9.158;2022-12-29T15:13:38;10.00;99.90
20759;DHT22;10539;53.686;9.158;2022-12-29T15:16:12;10.00;99.90
20759;DHT22;10539;53.686;9.158;2022-12-29T15:18:45;10.00;99.90
20759;DHT22;10539;53.686;9.158;2022-12-29T15:21:13;9.90;99.90
20759;DHT22;10539;53.686;9.158;2022-12-29T15:23:43;9.90;99.90
20759;DHT22;10539;53.686;9.158;2022-12-29T15:26:10;9.90;99.90
20759;DHT22;10539;53.686;9.158;2022-12-29T15:28:42;9.80;99.90
20759;DHT22;10539;53.686;9.158;2022-12-29T15:31:23;9.80;99.90
20759;DHT22;10539;53.686;9.158;2022-12-29T15:33:55;9.70;99.90
20759;DHT22;10539;53.686;9.158;2022-12-29T15:36:28;9.70;99.90
20759;DHT22;10539;53.686;9.158;2022-12-29T15:38:55;9.70;99.90
20759;DHT22;10539;53.686;9.158;2022-12-29T15:41:40;9.70;99.90
20759;DHT22;10539;53.686;9.158;2022-12-29T15:44:32;9.70;99.90
20759;DHT22;10539;53.686;9.158;2022-12-29T15:47:15;9.60;99.90
20759;DHT22;10539;53.686;9.158;2022-12-29T15:49:44;9.60;99.90
20759;DHT22;10539;53.686;9.158;2022-12-29T15:52:10;9.60;99.90
20759;DHT22;10539;53.686;9.158;2022-12-29T15:54:37;9.60;99.90
20759;DHT22;10539;53.686;9.158;2022-12-29T15:57:03;9.60;99.90
20759;DHT22;10539;53.686;9.158;2022-12-29T15:59:32;9.50;99.90
20759;DHT22;10539;53.686;9.158;2022-12-29T16:02:00;9.50;99.90
20759;DHT22;10539;53.686;9.158;2022-12-29T16:04:30;9.50;99.90
20759;DHT22;10539;53.686;9.158;2022-12-29T16:07:00;9.50;99.90
20759;DHT22;10539;53.686;9.158;2022-12-29T16:12:00;9.50;99.90
20759;DHT22;10539;53.686;9.158;2022-12-29T16:14:31;9.50;99.90
20759;DHT22;10539;53.686;9.158;2022-12-29T16:17:01;9.50;99.90
20759;DHT22;10539;53.686;9.158;2022-12-29T16:19:37;9.50;99.90
20759;DHT22;10539;53.686;9.158;2022-12-29T16:22:39;9.50;99.90
20759;DHT22;10539;53.686;9.158;2022-12-29T16:27:50;9.50;99.90
20759;DHT22;10539;53.686;9.158;2022-12-29T16:30:20;9.40;99.90
20759;DHT22;10539;53.686;9.158;2022-12-29T16:32:58;9.40;99.90
20759;DHT22;10539;53.686;9.158;2022-12-29T16:35:29;9.40;99.90
20759;DHT22;10539;53.686;9.158;2022-12-29T16:38:17;9.40;99.90
20759;DHT22;10539;53.686;9.158;2022-12-29T16:43:24;9.40;99.90
20759;DHT22;10539;53.686;9.158;2022-12-29T16:48:17;9.40;99.90
20759;DHT22;10539;53.686;9.158;2022-12-29T16:50:44;9.40;99.90
20759;DHT22;10539;53.686;9.158;2022-12-29T16:56:20;9.40;99.90
20759;DHT22;10539;53.686;9.158;2022-12-29T16:58:48;9.40;99.90
20759;DHT22;10539;53.686;9.158;2022-12-29T17:01:14;9.40;99.90
20759;DHT22;10539;53.686;9.158;2022-12-29T17:03:51;9.40;99.90
20759;DHT22;10539;53.686;9.158;2022-12-29T17:06:20;9.40;99.90
20759;DHT22;10539;53.686;9.158;2022-12-29T17:08:47;9.30;99.90
20759;DHT22;10539;53.686;9.158;2022-12-29T17:11:30;9.30;99.90
20759;DHT22;10539;53.686;9.158;2022-12-29T17:16:47;9.30;99.90
20759;DHT22;10539;53.686;9.158;2022-12-29T17:19:18;9.30;99.90
20759;DHT22;10539;53.686;9.158;2022-12-29T17:21:44;9.30;99.90
20759;DHT22;10539;53.686;9.158;2022-12-29T17:24:17;9.40;99.90
20759;DHT22;10539;53.686;9.158;2022-12-29T17:26:52;9.40;99.90
20759;DHT22;10539;53.686;9.158;2022-12-29T17:29:25;9.40;99.90
20759;DHT22;10539;53.686;9.158;2022-12-29T17:31:53;9.40;99.90
20759;DHT22;10539;53.686;9.158;2022-12-29T17:34:20;9.50;99.90
20759;DHT22;10539;53.686;9.158;2022-12-29T17:36:46;9.50;99.90
20759;DHT22;10539;53.686;9.158;2022-12-29T17:39:11;9.50;99.90
20759;DHT22;10539;53.686;9.158;2022-12-29T17:41:37;9.50;99.90
20759;DHT22;10539;53.686;9.158;2022-12-29T17:44:04;9.50;99.90
20759;DHT22;10539;53.686;9.158;2022-12-29T17:46:30;9.40;99.90
20759;DHT22;10539;53.686;9.158;2022-12-29T17:48:56;9.40;99.90
20759;DHT22;10539;53.686;9.158;2022-12-29T17:51:22;9.40;99.90
20759;DHT22;10539;53.686;9.158;2022-12-29T17:53:48;9.40;99.90
20759;DHT22;10539;53.686;9.158;2022-12-29T17:56:17;9.30;99.90
20759;DHT22;10539;53.686;9.158;2022-12-29T17:58:43;9.30;99.90